Juliaetta, ID (83535)

12:53 PM PDT on September 16, 2014 (GMT -0700)
Lamb Road | Change Station
CLOSE
Current Station
Personal Weather Station
Location: Troy, ID
Elevation: 2677 ft
Nearby Weather Stations

Elev 2677 ft 46.72 °N, 116.77 °W | Updated 6 seconds ago

Partly Cloudy
Partly Cloudy
85.4 °F
Feels Like 82 °F
N
0.0
Wind Variable Wind from SSW

Today
High -- | Low -- °F
--% Chance of Precip.
Yesterday
High -- | Low -- °F
Precip. -- in
6:26 AM 6:56 PM
Last Quarter, 43% visible
Pressure 29.83 in
Visibility 6.0 miles
Clouds Clear
Heat Index 82 °F
Dew Point 41 °F
Humidity 21%
Rainfall 0.00 in
Snow Depth 0 in , 0 in , 0 in
UV 6 out of 12
Pollen 6.90 out of 12
PM2.5 Unhealthy for Sensitive Groups
Flu Activity Not available.
METAR KLWS 161856Z 30004KT 6SM HZ CLR 25/06 A2985 RMK AO2 SLP099 T02500056

More Conditions Fewer Conditions

Pressure 29.83 in
Visibility 6.0 miles
Clouds Clear
Heat Index 82 °F
Dew Point 41 °F
Humidity 21%
Rainfall 0.00 in
Snow Depth 0 in , 0 in , 0 in
UV 6 out of 12
Pollen 6.90 out of 12
PM2.5 Unhealthy for Sensitive Groups
Flu Activity Not available.
METAR KLWS 161856Z 30004KT 6SM HZ CLR 25/06 A2985 RMK AO2 SLP099 T02500056

More Conditions Fewer Conditions

10-Day Weather Forecast

Almanac

Astronomy

Sep. 16, 2014 Rise Set
Actual Time 6:26 AM PDT 6:56 PM PDT
Civil Twilight 5:55 AM PDT 7:26 PM PDT
Nautical Twilight 5:19 AM PDT 8:02 PM PDT
Astronomical Twilight 4:42 AM PDT 8:39 PM PDT
Moon No Moon Rise 2:39 PM PDT
Length of Visible Light 13h 30m
Length of Day
12h 30m
Tomorrow will be 3m 16s shorter.
Last Quarter, 43% of the Moon is Illuminated
Today
Last Quarter
Sep 24
New
Oct 1
First Quarter
Oct 8
Full
Oct 15
Last Quarter

Today's Extremes

State Highs State Lows

Community

WunderPhotos

Upload Photos

1,753,860 photos uploaded!

Nearby

Air Quality

  Air Quality AQ Index Pollutant
Yesterday Moderate
PM2.5
Current Unhealthy for Sensitive Groups
PM2.5
Tuesday Moderate
PM2.5
Wednesday Good
PM2.5

Snow Depth

Station Depth Elevation
Brundage Reservoir 0 in 6300 ft
Myrtle Creek 0 in 3520 ft
Schwartz Lake 0 in 8620 ft
Mill Creek Summit 1 in 8800 ft
Jackson Peak 0 in 7070 ft

Earthquake Activity

City Distance Mag. Time & Date
No recent earthquake activity has been reported nearby.
Minimum magnitude displayed is 2.5.

Coastal Water Temperatures

Place Temperature
No Stations Reporting

Nearby Weather Stations